Time;durP1;ratioP1;P1;durP2;ratioP2;P2;SDS_P1;SDS_P2;PMS_P1;PMS_P2;Temp;Humidity;BMP_temperature;BMP_pressure;BME280_temperature;BME280_humidity;BME280_pressure;Samples;Min_cycle;Max_cycle;Signal;HPM_P1;HPM_P2
2021/03/31 00:01:23;;;;;;;3.25;2.78;;;8.80;99.90;;;;;;4841876;29;20550;-81
2021/03/31 00:03:49;;;;;;;3.90;3.03;;;8.80;99.90;;;;;;4849712;29;20498;-75
2021/03/31 00:06:14;;;;;;;2.77;2.50;;;8.80;99.90;;;;;;4852296;29;20446;-75
2021/03/31 00:08:42;;;;;;;2.88;2.60;;;8.70;99.90;;;;;;4843914;29;20406;-76
2021/03/31 00:11:07;;;;;;;3.60;2.80;;;8.70;99.90;;;;;;4837236;29;20757;-74
2021/03/31 00:13:33;;;;;;;2.90;2.57;;;8.70;99.90;;;;;;4854101;29;20422;-75
2021/03/31 00:15:59;;;;;;;3.10;2.80;;;8.70;99.90;;;;;;4845802;29;20416;-75
2021/03/31 00:18:25;;;;;;;3.45;2.88;;;8.70;99.90;;;;;;4839870;29;20394;-78
2021/03/31 00:20:51;;;;;;;4.45;3.10;;;8.60;99.90;;;;;;4851959;29;20999;-75
2021/03/31 00:23:20;;;;;;;3.60;2.85;;;8.50;99.90;;;;;;4843394;29;20491;-78
2021/03/31 00:25:46;;;;;;;3.40;2.95;;;8.50;99.90;;;;;;4859893;29;20429;-77
2021/03/31 00:28:12;;;;;;;6.50;3.58;;;8.30;99.90;;;;;;4852624;29;20458;-77
2021/03/31 00:30:38;;;;;;;4.23;3.70;;;8.30;99.90;;;;;;4855603;29;20437;-77
2021/03/31 00:33:04;;;;;;;4.13;3.47;;;8.30;99.90;;;;;;4847570;29;20418;-76
2021/03/31 00:35:30;;;;;;;3.58;3.20;;;8.30;99.90;;;;;;4874283;29;20504;-77
2021/03/31 00:37:56;;;;;;;4.93;3.47;;;8.30;99.90;;;;;;4859529;29;20571;-81
2021/03/31 00:40:23;;;;;;;4.90;3.22;;;8.20;99.90;;;;;;4860049;29;20426;-77
2021/03/31 00:42:49;;;;;;;4.00;3.47;;;8.30;99.90;;;;;;4830731;29;20804;-76
2021/03/31 00:45:15;;;;;;;5.10;3.60;;;8.20;99.90;;;;;;4842429;29;20427;-77
2021/03/31 00:47:41;;;;;;;3.80;3.50;;;8.20;99.90;;;;;;4839998;29;20418;-76
2021/03/31 00:50:15;;;;;;;5.25;3.25;;;8.20;99.90;;;;;;4856964;29;20429;-77
2021/03/31 00:52:42;;;;;;;4.75;3.40;;;8.10;99.90;;;;;;4849186;29;20422;-77
2021/03/31 00:55:08;;;;;;;3.75;3.35;;;8.00;99.90;;;;;;4855533;29;20827;-77
2021/03/31 00:57:35;;;;;;;4.00;3.25;;;8.00;99.90;;;;;;4840998;29;20406;-77
2021/03/31 01:00:00;;;;;;;3.70;3.28;;;8.00;99.90;;;;;;4865908;29;20514;-77
2021/03/31 01:02:26;;;;;;;3.88;3.45;;;7.90;99.90;;;;;;4841479;29;20519;-77
2021/03/31 01:04:52;;;;;;;4.88;3.92;;;7.90;99.90;;;;;;4868761;29;20428;-76
2021/03/31 01:07:18;;;;;;;3.60;3.30;;;7.70;99.90;;;;;;4867556;29;20466;-77
2021/03/31 01:09:43;;;;;;;5.47;3.40;;;7.70;99.90;;;;;;4854975;29;20923;-76
2021/03/31 01:12:36;;;;;;;3.50;3.20;;;7.70;99.90;;;;;;4846843;29;20913;-78
2021/03/31 01:15:15;;;;;;;6.60;3.47;;;7.70;99.90;;;;;;4870612;29;20437;-77
2021/03/31 01:18:06;;;;;;;3.58;3.28;;;7.70;99.90;;;;;;4843270;29;20421;-77
2021/03/31 01:20:37;;;;;;;5.50;3.75;;;7.70;99.90;;;;;;4855871;29;20430;-76
2021/03/31 01:23:30;;;;;;;4.10;3.47;;;7.60;99.90;;;;;;4850593;29;20485;-77
2021/03/31 01:26:24;;;;;;;3.65;3.28;;;7.60;99.90;;;;;;4853489;29;20577;-76
2021/03/31 01:29:32;;;;;;;3.85;3.20;;;7.40;99.90;;;;;;4839413;29;20991;-77
2021/03/31 01:32:14;;;;;;;3.88;3.50;;;7.40;99.90;;;;;;4851688;29;20472;-76
2021/03/31 01:34:54;;;;;;;4.20;3.45;;;7.20;99.90;;;;;;4844463;29;20422;-77
2021/03/31 01:37:25;;;;;;;3.42;3.15;;;7.10;99.90;;;;;;4861146;29;20421;-77
2021/03/31 01:39:52;;;;;;;4.88;3.65;;;7.10;99.90;;;;;;4872246;29;20415;-77
2021/03/31 01:42:17;;;;;;;4.05;3.63;;;7.10;99.90;;;;;;4837177;29;20568;-77
2021/03/31 01:44:43;;;;;;;4.40;3.45;;;7.10;99.90;;;;;;4841563;29;20497;-77
2021/03/31 01:47:12;;;;;;;3.15;2.90;;;7.10;99.90;;;;;;4871285;29;20405;-77
2021/03/31 01:49:37;;;;;;;3.47;3.17;;;7.00;99.90;;;;;;4837262;29;20423;-77
2021/03/31 01:52:04;;;;;;;3.50;3.20;;;7.00;99.90;;;;;;4856324;29;20499;-77
2021/03/31 01:54:29;;;;;;;4.10;3.38;;;7.10;99.90;;;;;;4838603;29;20792;-77
2021/03/31 01:56:55;;;;;;;4.22;3.53;;;7.20;99.90;;;;;;4840507;29;20410;-77
2021/03/31 01:59:21;;;;;;;3.73;3.43;;;7.10;99.90;;;;;;4856839;29;20422;-77
2021/03/31 02:01:50;;;;;;;3.90;3.50;;;7.00;99.90;;;;;;4842126;29;20426;-79
2021/03/31 02:04:16;;;;;;;3.70;3.30;;;6.90;99.90;;;;;;4838861;29;20441;-77
2021/03/31 02:06:42;;;;;;;3.85;3.40;;;6.90;99.90;;;;;;4854383;29;20407;-77
2021/03/31 02:09:07;;;;;;;3.47;3.17;;;6.90;99.90;;;;;;4839717;29;20410;-77
2021/03/31 02:11:33;;;;;;;3.83;3.23;;;6.90;99.90;;;;;;4831447;29;20442;-78
2021/03/31 02:13:59;;;;;;;3.30;2.80;;;7.00;99.90;;;;;;4857642;29;20414;-78
2021/03/31 02:16:25;;;;;;;3.40;2.95;;;6.90;99.90;;;;;;4844749;29;20781;-77
2021/03/31 02:18:52;;;;;;;4.75;3.38;;;7.00;99.90;;;;;;4844123;29;20422;-77
2021/03/31 02:21:18;;;;;;;4.03;3.67;;;6.90;99.90;;;;;;4834023;29;20418;-77
2021/03/31 02:23:43;;;;;;;4.87;3.57;;;6.90;99.90;;;;;;4840341;29;20472;-76
2021/03/31 02:26:09;;;;;;;3.58;3.28;;;6.80;99.90;;;;;;4830438;29;20433;-77
2021/03/31 02:28:35;;;;;;;4.53;3.90;;;6.90;99.90;;;;;;4873075;29;20434;-77
2021/03/31 02:31:01;;;;;;;3.80;3.50;;;6.80;99.90;;;;;;4866409;29;20418;-77
2021/03/31 02:33:27;;;;;;;4.07;3.67;;;6.70;99.90;;;;;;4839384;29;20418;-78
2021/03/31 02:35:53;;;;;;;4.43;3.53;;;6.60;99.90;;;;;;4854102;29;20928;-77
2021/03/31 02:38:19;;;;;;;4.57;4.00;;;6.60;99.90;;;;;;4861017;29;20418;-76
2021/03/31 02:40:47;;;;;;;4.10;3.78;;;6.60;99.90;;;;;;4859035;29;20428;-76
2021/03/31 02:43:14;;;;;;;4.32;3.90;;;6.50;99.90;;;;;;4819032;29;20435;-79
2021/03/31 02:45:41;;;;;;;3.53;2.90;;;6.40;99.90;;;;;;4826240;29;20412;-78
2021/03/31 02:48:07;;;;;;;4.65;3.42;;;6.40;99.90;;;;;;4843587;29;20428;-79
2021/03/31 02:50:34;;;;;;;5.22;3.90;;;6.40;99.90;;;;;;4845991;29;20465;-74
2021/03/31 02:53:00;;;;;;;4.28;3.88;;;6.50;99.90;;;;;;4837036;29;20418;-76
2021/03/31 02:55:26;;;;;;;4.88;4.07;;;6.40;99.90;;;;;;4867330;29;20448;-76
2021/03/31 02:57:53;;;;;;;6.00;3.47;;;6.40;99.90;;;;;;4836127;29;20421;-77
2021/03/31 03:00:19;;;;;;;4.28;3.88;;;6.30;99.90;;;;;;4836090;29;20423;-75
2021/03/31 03:02:45;;;;;;;4.13;3.72;;;6.30;99.90;;;;;;4831322;29;21439;-73
2021/03/31 03:05:12;;;;;;;4.32;3.92;;;6.20;99.90;;;;;;4866417;29;20423;-74
2021/03/31 03:07:38;;;;;;;4.20;3.35;;;6.20;99.90;;;;;;4839134;29;20422;-75
2021/03/31 03:10:05;;;;;;;3.80;3.28;;;6.20;99.90;;;;;;4853433;29;20409;-75
2021/03/31 03:12:31;;;;;;;4.05;3.65;;;6.20;99.90;;;;;;4847588;29;20476;-75
2021/03/31 03:14:57;;;;;;;4.37;3.97;;;6.10;99.90;;;;;;4856612;29;20443;-76
2021/03/31 03:17:22;;;;;;;4.67;3.90;;;6.00;99.90;;;;;;4848483;29;20420;-75
2021/03/31 03:19:48;;;;;;;4.38;3.85;;;5.90;99.90;;;;;;4853748;29;20408;-75
2021/03/31 03:22:14;;;;;;;3.70;3.40;;;6.00;99.90;;;;;;4833231;29;20447;-75
2021/03/31 03:24:42;;;;;;;6.27;4.07;;;6.00;99.90;;;;;;4844094;29;20434;-75
2021/03/31 03:27:10;;;;;;;3.90;3.60;;;6.00;99.90;;;;;;4838424;29;20402;-76
2021/03/31 03:29:36;;;;;;;4.20;3.80;;;6.10;99.90;;;;;;4829240;29;20471;-73
2021/03/31 03:32:02;;;;;;;5.37;3.50;;;6.00;99.90;;;;;;4840897;29;20825;-74
2021/03/31 03:34:27;;;;;;;4.45;3.78;;;6.00;99.90;;;;;;4836195;29;20986;-75
2021/03/31 03:36:53;;;;;;;4.97;3.80;;;6.10;99.90;;;;;;4837933;29;20429;-75
2021/03/31 03:39:19;;;;;;;4.30;3.90;;;6.10;99.90;;;;;;4834508;29;20947;-75
2021/03/31 03:41:45;;;;;;;3.92;3.53;;;6.00;99.90;;;;;;4868393;29;20437;-74
2021/03/31 03:44:10;;;;;;;3.88;3.50;;;6.00;99.90;;;;;;4845296;29;20797;-74
2021/03/31 03:46:36;;;;;;;5.60;3.80;;;6.00;99.90;;;;;;4849617;29;20414;-75
2021/03/31 03:49:03;;;;;;;6.25;3.35;;;6.00;99.90;;;;;;4846861;29;20454;-74
2021/03/31 03:51:29;;;;;;;4.78;3.58;;;6.00;99.90;;;;;;4841491;29;20434;-74
2021/03/31 03:53:55;;;;;;;5.22;4.05;;;5.90;99.90;;;;;;4839541;29;20410;-74
2021/03/31 03:56:21;;;;;;;5.00;3.47;;;5.90;99.90;;;;;;4866251;29;20407;-74
2021/03/31 03:58:47;;;;;;;3.83;3.45;;;5.80;99.90;;;;;;4825360;29;20410;-74
2021/03/31 04:01:13;;;;;;;3.75;3.40;;;6.10;99.90;;;;;;4851950;29;20414;-74
2021/03/31 04:03:39;;;;;;;4.43;3.67;;;5.90;99.90;;;;;;4834094;29;20438;-75
2021/03/31 04:06:05;;;;;;;3.40;3.10;;;5.80;99.90;;;;;;4835357;29;20934;-74
2021/03/31 04:08:31;;;;;;;4.53;3.58;;;5.90;99.90;;;;;;4853272;29;20409;-75
2021/03/31 04:10:57;;;;;;;4.70;3.53;;;5.80;99.90;;;;;;4858395;29;20419;-75
2021/03/31 04:13:23;;;;;;;3.50;3.15;;;5.80;99.90;;;;;;4837075;29;20404;-76
2021/03/31 04:15:51;;;;;;;3.78;3.40;;;5.80;99.90;;;;;;4843069;29;20430;-74
2021/03/31 04:18:17;;;;;;;4.40;3.60;;;5.70;99.90;;;;;;4825978;29;20416;-77
2021/03/31 04:20:43;;;;;;;4.40;3.53;;;5.70;99.90;;;;;;4836403;29;20812;-75
2021/03/31 04:23:09;;;;;;;3.90;3.50;;;5.70;99.90;;;;;;4835807;29;20422;-76
2021/03/31 04:25:34;;;;;;;3.90;3.37;;;5.70;99.90;;;;;;4834741;29;20425;-75
2021/03/31 04:28:02;;;;;;;3.90;3.50;;;5.70;99.90;;;;;;4855034;29;20416;-75
2021/03/31 04:30:27;;;;;;;4.00;3.60;;;5.60;99.90;;;;;;4872610;29;20429;-74
2021/03/31 04:32:53;;;;;;;3.83;3.38;;;5.70;99.90;;;;;;4862659;29;20426;-75
2021/03/31 04:35:20;;;;;;;4.43;3.43;;;5.50;99.90;;;;;;4833661;29;20426;-76
2021/03/31 04:37:46;;;;;;;4.18;3.78;;;5.50;99.90;;;;;;4867055;29;20426;-77
2021/03/31 04:40:15;;;;;;;3.97;3.58;;;5.50;99.90;;;;;;4850370;29;20470;-75
2021/03/31 04:42:41;;;;;;;4.28;3.65;;;5.50;99.90;;;;;;4852809;29;20425;-77
2021/03/31 04:45:08;;;;;;;3.93;3.53;;;5.50;99.90;;;;;;4832617;29;21328;-76
2021/03/31 04:47:35;;;;;;;4.27;3.83;;;5.50;99.90;;;;;;4851519;29;20441;-76
2021/03/31 04:50:01;;;;;;;3.75;3.45;;;5.50;99.90;;;;;;4856020;29;20418;-79
2021/03/31 04:52:29;;;;;;;4.20;3.55;;;5.50;99.90;;;;;;4840043;29;20465;-76
2021/03/31 04:54:55;;;;;;;3.53;3.22;;;5.60;99.90;;;;;;4869560;29;20422;-77
2021/03/31 04:57:21;;;;;;;4.70;4.05;;;5.50;99.90;;;;;;4854712;29;20415;-77
2021/03/31 04:59:46;;;;;;;3.88;3.55;;;5.50;99.90;;;;;;4858055;29;20426;-76
2021/03/31 05:02:12;;;;;;;4.53;3.70;;;5.50;99.90;;;;;;4851813;29;20796;-76
2021/03/31 05:04:37;;;;;;;3.85;3.47;;;5.50;99.90;;;;;;4835488;29;20475;-76
2021/03/31 05:07:04;;;;;;;8.37;4.20;;;5.50;99.90;;;;;;4835258;29;20453;-76
2021/03/31 05:09:30;;;;;;;5.65;3.75;;;5.50;99.90;;;;;;4839123;29;20472;-77
2021/03/31 05:11:55;;;;;;;4.15;3.75;;;5.40;99.90;;;;;;4842497;29;20759;-76
2021/03/31 05:14:22;;;;;;;4.37;3.70;;;5.40;99.90;;;;;;4841132;29;20923;-75
2021/03/31 05:16:47;;;;;;;6.97;4.10;;;5.50;99.90;;;;;;4842288;29;20415;-74
2021/03/31 05:19:13;;;;;;;5.00;3.83;;;5.50;99.90;;;;;;4841511;29;20960;-76
2021/03/31 05:21:39;;;;;;;5.40;3.90;;;5.50;99.90;;;;;;4854273;29;20492;-75
2021/03/31 05:24:05;;;;;;;7.28;3.80;;;5.50;99.90;;;;;;4856066;29;20407;-75
2021/03/31 05:26:31;;;;;;;5.28;3.80;;;5.60;99.90;;;;;;4841412;29;20448;-76
2021/03/31 05:28:57;;;;;;;5.85;3.67;;;5.60;99.90;;;;;;4836644;29;20438;-76
2021/03/31 05:31:23;;;;;;;4.45;3.60;;;5.90;99.90;;;;;;4868474;29;20980;-76
2021/03/31 05:33:49;;;;;;;6.47;3.33;;;5.70;99.90;;;;;;4855333;29;20474;-76
2021/03/31 05:36:14;;;;;;;4.40;3.93;;;5.80;99.90;;;;;;4854977;29;20501;-76
2021/03/31 05:38:40;;;;;;;6.00;3.78;;;5.80;99.90;;;;;;4825204;29;20414;-76
2021/03/31 05:41:06;;;;;;;4.25;3.70;;;5.90;99.90;;;;;;4846781;29;20422;-76
2021/03/31 05:43:32;;;;;;;3.67;3.37;;;6.00;99.90;;;;;;4853169;29;20824;-77
2021/03/31 05:45:58;;;;;;;4.20;3.80;;;6.10;99.90;;;;;;4851715;29;20786;-76
2021/03/31 05:48:24;;;;;;;15.23;5.63;;;6.20;99.90;;;;;;4835422;29;20412;-76
2021/03/31 05:50:49;;;;;;;9.48;4.50;;;6.20;99.90;;;;;;4863767;29;20425;-77
2021/03/31 05:53:15;;;;;;;7.38;4.60;;;6.50;99.90;;;;;;4837159;29;20399;-76
2021/03/31 05:55:41;;;;;;;8.30;4.70;;;6.40;99.90;;;;;;4852955;29;20418;-75
2021/03/31 05:58:07;;;;;;;4.88;3.92;;;6.50;99.90;;;;;;4857540;29;20502;-75
2021/03/31 06:00:32;;;;;;;5.50;3.97;;;6.60;99.90;;;;;;4838649;29;21057;-76
2021/03/31 06:03:01;;;;;;;4.07;3.67;;;6.60;99.90;;;;;;4855084;29;20423;-77
2021/03/31 06:05:27;;;;;;;5.37;3.83;;;6.70;99.90;;;;;;4840073;29;20422;-75
2021/03/31 06:07:53;;;;;;;4.07;3.77;;;6.80;99.90;;;;;;4842036;29;21033;-76
2021/03/31 06:10:22;;;;;;;4.05;3.65;;;6.90;99.90;;;;;;4842107;29;20490;-76
2021/03/31 06:12:58;;;;;;;5.68;3.90;;;7.00;99.90;;;;;;4853102;29;20492;-75
2021/03/31 06:15:43;;;;;;;5.70;3.72;;;7.00;99.90;;;;;;4865956;29;20431;-76
2021/03/31 06:18:09;;;;;;;4.33;3.93;;;7.20;99.90;;;;;;4822802;29;20913;-75
2021/03/31 06:20:45;;;;;;;4.95;4.45;;;7.30;99.90;;;;;;4838819;29;20811;-76
2021/03/31 06:23:50;;;;;;;5.78;4.03;;;7.40;99.90;;;;;;4835924;29;20414;-76
2021/03/31 06:26:32;;;;;;;4.40;4.00;;;7.70;99.90;;;;;;4850119;29;20445;-79
2021/03/31 06:29:02;;;;;;;4.15;3.75;;;7.90;99.90;;;;;;4872336;29;20415;-78
2021/03/31 06:31:33;;;;;;;7.07;4.00;;;8.00;99.90;;;;;;4856083;29;21204;-78
2021/03/31 06:34:14;;;;;;;6.63;4.80;;;8.20;99.90;;;;;;4855457;29;20776;-77
2021/03/31 06:36:45;;;;;;;6.07;4.73;;;8.40;99.90;;;;;;4848891;29;20422;-78
2021/03/31 06:39:19;;;;;;;6.28;5.05;;;8.60;99.90;;;;;;4848307;29;20481;-78
2021/03/31 06:41:59;;;;;;;6.20;5.50;;;8.80;99.90;;;;;;4855471;29;20437;-79
2021/03/31 06:47:29;;;;;;;9.40;6.88;;;9.30;99.90;;;;;;4844827;29;20443;-78
2021/03/31 06:49:56;;;;;;;9.18;6.07;;;9.50;99.90;;;;;;4814751;29;20498;-78
2021/03/31 06:52:21;;;;;;;9.13;7.28;;;9.60;99.90;;;;;;4849161;29;20824;-79
2021/03/31 06:54:49;;;;;;;8.63;7.73;;;9.80;99.90;;;;;;4870198;29;20414;-78
2021/03/31 06:57:36;;;;;;;6.90;6.20;;;9.90;99.90;;;;;;4830960;29;20780;-79
2021/03/31 07:00:12;;;;;;;10.50;7.00;;;10.10;99.90;;;;;;4859812;29;20394;-78
2021/03/31 07:02:40;;;;;;;11.85;6.90;;;10.20;99.90;;;;;;4869980;29;20539;-78
2021/03/31 07:05:06;;;;;;;8.00;6.15;;;10.40;99.90;;;;;;4851721;29;20578;-77
2021/03/31 07:07:36;;;;;;;7.60;6.15;;;10.50;99.90;;;;;;4831883;29;20474;-78
2021/03/31 07:10:09;;;;;;;7.37;6.57;;;10.70;99.90;;;;;;4858273;29;20799;-78
2021/03/31 07:12:50;;;;;;;6.97;5.90;;;10.90;99.90;;;;;;4852920;29;20427;-76
2021/03/31 07:15:20;;;;;;;7.85;5.90;;;11.10;99.90;;;;;;4871287;29;20780;-76
2021/03/31 07:17:49;;;;;;;7.95;6.47;;;11.20;99.90;;;;;;4848703;29;20412;-75
2021/03/31 07:20:15;;;;;;;9.10;6.63;;;11.40;99.90;;;;;;4835359;29;20917;-75
2021/03/31 07:22:40;;;;;;;11.00;6.47;;;11.60;99.90;;;;;;4835844;29;20412;-75
2021/03/31 07:25:07;;;;;;;7.70;6.40;;;11.70;99.90;;;;;;4852690;29;20686;-76
2021/03/31 07:27:33;;;;;;;8.17;6.83;;;11.90;99.90;;;;;;4871097;29;20494;-76
2021/03/31 07:32:40;;;;;;;7.43;6.22;;;12.10;99.90;;;;;;4862384;29;20481;-76
2021/03/31 07:35:07;;;;;;;8.63;6.35;;;12.30;99.90;;;;;;4848719;29;20445;-76
2021/03/31 07:37:33;;;;;;;6.90;5.97;;;12.30;99.90;;;;;;4854205;29;20905;-76
2021/03/31 07:39:59;;;;;;;8.90;5.88;;;12.50;99.90;;;;;;4847045;29;20963;-75
2021/03/31 07:42:25;;;;;;;6.90;6.05;;;12.60;99.90;;;;;;4853117;29;20474;-76
2021/03/31 07:44:51;;;;;;;6.88;6.10;;;12.80;99.90;;;;;;4834696;29;20442;-75
2021/03/31 07:47:17;;;;;;;6.55;5.82;;;13.00;99.90;;;;;;4862203;29;20422;-76
2021/03/31 07:49:43;;;;;;;6.87;6.20;;;13.20;99.90;;;;;;4837165;29;20410;-75
2021/03/31 07:52:08;;;;;;;11.15;7.30;;;13.40;99.90;;;;;;4840611;29;20426;-75
2021/03/31 07:54:34;;;;;;;10.13;6.30;;;13.50;99.90;;;;;;4860428;29;20422;-76
2021/03/31 07:57:25;;;;;;;9.82;6.40;;;13.60;99.90;;;;;;4859182;29;20434;-76
2021/03/31 07:59:51;;;;;;;7.73;6.53;;;13.70;99.90;;;;;;4850858;29;20414;-76
2021/03/31 08:02:18;;;;;;;6.63;5.72;;;13.70;99.90;;;;;;4860783;29;20414;-74
2021/03/31 08:04:43;;;;;;;6.20;5.60;;;13.90;99.90;;;;;;4865513;29;20514;-74
2021/03/31 08:07:22;;;;;;;11.07;6.82;;;14.10;99.90;;;;;;4838717;29;21196;-75
2021/03/31 08:09:48;;;;;;;7.60;6.13;;;14.20;99.90;;;;;;4855362;29;20418;-75
2021/03/31 08:12:34;;;;;;;8.70;6.33;;;14.30;99.90;;;;;;4837391;29;20407;-75
2021/03/31 08:14:59;;;;;;;8.85;5.97;;;14.40;99.90;;;;;;4860234;29;20967;-75
2021/03/31 08:17:25;;;;;;;9.50;5.70;;;14.50;99.90;;;;;;4866491;29;20562;-75
2021/03/31 08:19:52;;;;;;;10.02;6.22;;;14.60;99.90;;;;;;4837970;29;20758;-75
2021/03/31 08:22:26;;;;;;;10.33;6.43;;;14.70;99.90;;;;;;4849403;29;20427;-75
2021/03/31 08:24:56;;;;;;;6.35;5.38;;;14.80;99.90;;;;;;4868204;29;20968;-75
2021/03/31 08:27:22;;;;;;;11.13;6.60;;;14.90;99.90;;;;;;4835568;29;20414;-75
2021/03/31 08:29:52;;;;;;;8.57;5.67;;;15.10;99.90;;;;;;4840038;29;20409;-75
2021/03/31 08:32:19;;;;;;;7.38;5.75;;;15.20;99.90;;;;;;4836882;29;20912;-75
2021/03/31 08:34:45;;;;;;;8.37;5.63;;;15.30;99.90;;;;;;4852865;29;20406;-75
2021/03/31 08:37:21;;;;;;;9.30;6.07;;;15.30;99.90;;;;;;4870412;29;20416;-74
2021/03/31 08:39:46;;;;;;;7.78;5.57;;;15.40;99.90;;;;;;4860714;29;20406;-74
2021/03/31 08:42:12;;;;;;;7.07;6.00;;;15.50;99.90;;;;;;4837366;29;20466;-75
2021/03/31 08:44:39;;;;;;;7.07;6.00;;;15.60;99.90;;;;;;4838234;29;20422;-75
2021/03/31 08:47:09;;;;;;;8.70;6.03;;;15.70;99.90;;;;;;4854713;29;20414;-75
2021/03/31 08:49:35;;;;;;;9.60;5.82;;;15.70;99.90;;;;;;4831919;29;20423;-75
2021/03/31 08:52:06;;;;;;;7.80;6.10;;;15.90;99.90;;;;;;4864553;29;20505;-75
2021/03/31 08:54:43;;;;;;;8.07;6.15;;;16.00;99.90;;;;;;4854698;29;21145;-75
2021/03/31 08:57:10;;;;;;;9.15;6.22;;;16.10;99.90;;;;;;4836213;29;20895;-75
2021/03/31 08:59:38;;;;;;;8.27;5.97;;;16.30;99.90;;;;;;4838992;29;20408;-75
2021/03/31 09:02:04;;;;;;;6.22;5.47;;;16.40;99.90;;;;;;4838586;29;20471;-76
2021/03/31 09:04:31;;;;;;;7.47;5.63;;;16.60;99.90;;;;;;4854489;29;20526;-76
2021/03/31 09:06:57;;;;;;;9.20;6.50;;;16.70;99.90;;;;;;4862374;29;20495;-75
2021/03/31 09:09:23;;;;;;;7.03;6.10;;;16.80;99.90;;;;;;4838543;29;20495;-76
2021/03/31 09:11:59;;;;;;;6.90;6.10;;;16.90;99.90;;;;;;4870629;29;20422;-76
2021/03/31 09:14:25;;;;;;;7.07;5.82;;;17.00;99.90;;;;;;4839658;29;20410;-75
2021/03/31 09:17:02;;;;;;;11.70;6.50;;;17.10;99.90;;;;;;4869070;29;20419;-76
2021/03/31 09:19:39;;;;;;;8.32;6.10;;;17.20;99.90;;;;;;4840864;29;20413;-75
2021/03/31 09:22:17;;;;;;;10.90;6.43;;;17.40;99.90;;;;;;4855615;29;20410;-76
2021/03/31 09:24:47;;;;;;;8.60;6.47;;;17.50;99.90;;;;;;4866602;29;20432;-75
2021/03/31 09:27:15;;;;;;;10.85;7.22;;;17.60;99.90;;;;;;4851315;29;20404;-76
2021/03/31 09:29:43;;;;;;;9.50;6.80;;;17.70;99.90;;;;;;4836598;29;20873;-75
2021/03/31 09:32:12;;;;;;;9.50;6.47;;;17.80;99.90;;;;;;4839481;29;20399;-76
2021/03/31 09:34:37;;;;;;;7.78;6.40;;;17.90;99.90;;;;;;4842955;29;20414;-75
2021/03/31 09:37:12;;;;;;;12.13;6.47;;;18.10;99.90;;;;;;4839265;29;20413;-75
2021/03/31 09:39:47;;;;;;;7.57;5.88;;;18.20;99.90;;;;;;4829175;29;20480;-75
2021/03/31 09:42:33;;;;;;;9.40;7.32;;;18.30;99.90;;;;;;4863071;29;20435;-75
2021/03/31 09:44:59;;;;;;;12.70;7.10;;;18.50;99.90;;;;;;4837892;29;20951;-75
2021/03/31 09:47:26;;;;;;;7.55;6.03;;;18.70;99.90;;;;;;4853700;29;20481;-76
2021/03/31 09:49:52;;;;;;;9.47;6.73;;;18.80;99.90;;;;;;4835792;29;20875;-76
2021/03/31 09:52:27;;;;;;;10.77;6.32;;;19.10;99.90;;;;;;4871802;29;20531;-75
2021/03/31 09:54:52;;;;;;;8.68;6.63;;;19.30;99.90;;;;;;4865218;29;20420;-76
2021/03/31 09:57:18;;;;;;;11.30;6.90;;;19.50;99.90;;;;;;4851930;29;20840;-76
2021/03/31 09:59:44;;;;;;;8.53;6.03;;;19.70;99.90;;;;;;4869544;29;20422;-75
2021/03/31 10:02:10;;;;;;;8.47;6.77;;;19.90;99.90;;;;;;4853009;29;20501;-75
2021/03/31 10:04:38;;;;;;;10.10;7.20;;;20.10;99.90;;;;;;4843155;29;20426;-76
2021/03/31 10:07:18;;;;;;;9.93;6.55;;;20.40;98.50;;;;;;4850115;29;21254;-75
2021/03/31 10:09:48;;;;;;;10.15;6.40;;;20.60;98.40;;;;;;4840430;29;20421;-75
2021/03/31 10:12:22;;;;;;;7.30;6.10;;;20.90;96.10;;;;;;4849239;29;21001;-76
2021/03/31 10:14:52;;;;;;;7.37;6.03;;;21.10;96.10;;;;;;4835623;29;20414;-75
2021/03/31 10:17:19;;;;;;;8.00;6.07;;;21.40;96.50;;;;;;4837646;29;20438;-75
2021/03/31 10:19:44;;;;;;;9.18;7.25;;;21.70;94.30;;;;;;4843793;29;20421;-75
2021/03/31 10:22:10;;;;;;;10.18;6.90;;;21.90;93.50;;;;;;4844435;29;20409;-76
2021/03/31 10:24:47;;;;;;;8.90;6.97;;;22.20;91.80;;;;;;4837682;29;20437;-75
2021/03/31 10:27:14;;;;;;;9.07;6.97;;;22.40;91.40;;;;;;4847146;29;20489;-75
2021/03/31 10:29:51;;;;;;;9.27;6.72;;;22.70;89.00;;;;;;4857178;29;20773;-74
2021/03/31 10:32:21;;;;;;;9.17;6.93;;;22.80;88.10;;;;;;4835193;29;20479;-75
2021/03/31 10:34:48;;;;;;;9.40;6.30;;;23.00;86.00;;;;;;4866890;29;20907;-75
2021/03/31 10:37:33;;;;;;;9.43;6.03;;;23.30;88.30;;;;;;4838249;29;20845;-75
2021/03/31 10:54:10;;;;;;;8.88;5.53;;;24.90;69.80;;;;;;4835123;29;20416;-74
2021/03/31 10:56:38;;;;;;;8.98;5.30;;;25.10;64.60;;;;;;4851720;29;20804;-74
2021/03/31 10:59:04;;;;;;;7.30;5.78;;;25.10;63.70;;;;;;4832077;29;20421;-76
2021/03/31 11:01:31;;;;;;;9.88;6.07;;;25.20;59.70;;;;;;4851789;29;20436;-75
2021/03/31 11:03:57;;;;;;;8.30;5.97;;;25.30;61.60;;;;;;4842352;29;21005;-75
2021/03/31 11:06:24;;;;;;;6.53;5.45;;;25.20;55.60;;;;;;4852940;29;20426;-74
2021/03/31 11:08:51;;;;;;;9.40;5.07;;;25.30;55.80;;;;;;4819061;29;20407;-76
2021/03/31 11:11:16;;;;;;;7.82;5.03;;;25.70;58.50;;;;;;4840295;29;20430;-74
2021/03/31 11:13:42;;;;;;;6.68;5.20;;;25.90;56.20;;;;;;4836247;29;20420;-76
2021/03/31 11:16:10;;;;;;;7.35;4.95;;;26.40;55.30;;;;;;4850613;29;20773;-76
2021/03/31 11:18:53;;;;;;;7.00;5.05;;;26.60;54.80;;;;;;4827380;29;20426;-76
2021/03/31 11:26:48;;;;;;;5.17;4.67;;;26.80;49.10;;;;;;4839682;29;20426;-78
2021/03/31 11:29:13;;;;;;;9.50;5.18;;;27.10;49.20;;;;;;4857318;29;21152;-77
2021/03/31 11:31:40;;;;;;;7.37;4.90;;;27.00;45.90;;;;;;4851203;29;20423;-77
2021/03/31 11:34:05;;;;;;;7.00;4.72;;;26.80;45.60;;;;;;4852443;29;20422;-78
2021/03/31 11:36:33;;;;;;;7.30;4.27;;;26.80;45.70;;;;;;4853669;29;20946;-77
2021/03/31 11:38:59;;;;;;;5.47;4.80;;;26.60;46.70;;;;;;4840646;29;20411;-77
2021/03/31 11:41:25;;;;;;;6.13;4.55;;;26.60;47.80;;;;;;4852891;29;20436;-78
2021/03/31 11:43:50;;;;;;;4.85;3.88;;;26.90;47.60;;;;;;4852423;29;20416;-77
2021/03/31 11:46:16;;;;;;;5.13;4.50;;;27.30;47.40;;;;;;4826484;29;20489;-76
2021/03/31 11:48:42;;;;;;;4.97;4.23;;;27.90;47.50;;;;;;4858248;29;20410;-76
2021/03/31 11:51:08;;;;;;;5.78;4.35;;;28.20;45.50;;;;;;4839829;29;22070;-76
2021/03/31 11:53:33;;;;;;;6.07;4.20;;;28.30;43.10;;;;;;4859797;29;20503;-77
2021/03/31 11:55:59;;;;;;;5.47;4.33;;;28.00;42.30;;;;;;4853497;29;20780;-77
2021/03/31 11:58:25;;;;;;;5.75;4.68;;;28.00;43.50;;;;;;4835702;29;20412;-77
2021/03/31 12:00:50;;;;;;;6.23;4.80;;;28.20;42.40;;;;;;4868556;29;20458;-76
2021/03/31 12:03:18;;;;;;;4.70;4.28;;;28.10;42.20;;;;;;4868667;29;20413;-76
2021/03/31 12:05:43;;;;;;;6.60;4.43;;;27.70;39.50;;;;;;4837288;29;20430;-78
2021/03/31 12:08:09;;;;;;;5.05;4.45;;;27.40;38.20;;;;;;4846556;29;20413;-76
2021/03/31 12:10:35;;;;;;;6.23;4.67;;;27.20;40.40;;;;;;4856747;29;20411;-77
2021/03/31 12:13:00;;;;;;;7.90;5.77;;;27.00;41.10;;;;;;4835267;29;20452;-78
2021/03/31 12:15:26;;;;;;;5.57;4.72;;;27.00;39.40;;;;;;4867144;29;20409;-77
2021/03/31 12:17:52;;;;;;;5.65;4.57;;;27.00;39.90;;;;;;4841273;29;20824;-77
2021/03/31 12:20:18;;;;;;;5.37;4.60;;;27.10;39.60;;;;;;4838394;29;20420;-77
2021/03/31 12:22:44;;;;;;;6.30;5.03;;;27.20;40.40;;;;;;4839879;29;20404;-77
2021/03/31 12:25:10;;;;;;;7.93;5.73;;;27.60;40.90;;;;;;4850720;29;20934;-77
2021/03/31 12:27:37;;;;;;;6.37;5.40;;;27.80;38.20;;;;;;4849630;29;20442;-76
2021/03/31 12:30:07;;;;;;;7.13;4.78;;;27.50;38.00;;;;;;4857709;29;20414;-77
2021/03/31 12:32:33;;;;;;;6.07;4.90;;;27.70;38.80;;;;;;4856875;29;20406;-77
2021/03/31 12:34:58;;;;;;;6.15;4.45;;;27.30;38.70;;;;;;4856614;29;20925;-75
2021/03/31 12:37:24;;;;;;;8.87;4.90;;;27.50;41.10;;;;;;4872092;29;20420;-76
2021/03/31 12:39:50;;;;;;;5.72;4.50;;;27.90;42.30;;;;;;4856632;29;20410;-76
2021/03/31 12:42:16;;;;;;;8.80;5.00;;;28.20;42.10;;;;;;4846008;29;20425;-76
2021/03/31 12:44:41;;;;;;;5.28;4.63;;;28.40;39.00;;;;;;4840639;29;20441;-77
2021/03/31 12:47:07;;;;;;;6.23;5.27;;;28.80;40.00;;;;;;4840263;29;20425;-78
2021/03/31 12:49:33;;;;;;;5.93;4.80;;;28.10;39.60;;;;;;4836362;29;20526;-77
2021/03/31 12:52:04;;;;;;;7.43;5.32;;;27.80;38.50;;;;;;4854275;29;20439;-76
2021/03/31 12:54:37;;;;;;;8.70;5.17;;;27.60;38.50;;;;;;4836840;29;20411;-77
2021/03/31 12:57:04;;;;;;;6.18;4.70;;;27.60;40.40;;;;;;4838597;29;20412;-76
2021/03/31 12:59:31;;;;;;;6.47;4.95;;;27.10;38.50;;;;;;4858281;29;20414;-76
2021/03/31 13:01:56;;;;;;;6.93;5.20;;;27.00;38.70;;;;;;4871292;29;20466;-75
2021/03/31 13:04:22;;;;;;;6.13;5.23;;;27.20;39.00;;;;;;4840254;29;20406;-76
2021/03/31 13:06:48;;;;;;;5.15;4.63;;;27.60;40.30;;;;;;4845268;29;20414;-76
2021/03/31 13:09:14;;;;;;;4.50;4.07;;;27.70;37.50;;;;;;4847986;29;20441;-76
2021/03/31 13:11:40;;;;;;;5.03;3.73;;;27.80;38.40;;;;;;4871088;29;20776;-77
2021/03/31 13:22:06;;;;;;;5.25;4.53;;;27.20;36.40;;;;;;4842814;29;20920;-76
2021/03/31 13:32:36;;;;;;;7.55;4.90;;;28.40;34.50;;;;;;4862676;29;20483;-76
2021/03/31 13:35:10;;;;;;;4.20;3.80;;;27.70;35.80;;;;;;4853071;29;20929;-75
2021/03/31 13:37:43;;;;;;;4.05;3.38;;;28.20;35.80;;;;;;4849068;29;20426;-74